Time;durP1;ratioP1;P1;durP2;ratioP2;P2;SDS_P1;SDS_P2;PMS_P1;PMS_P2;Temp;Humidity;BMP_temperature;BMP_pressure;BME280_temperature;BME280_humidity;BME280_pressure;Samples;Min_cycle;Max_cycle;Signal;HPM_P1;HPM_P2
2022/08/23 00:01:55;;;;;;;11.48;4.97;;;;;;;20.07;60.13;101218.19;5113002;28;20103;-56
2022/08/23 00:04:26;;;;;;;12.23;4.93;;;;;;;20.20;60.32;101222.22;5114179;28;20024;-56
2022/08/23 00:06:53;;;;;;;9.93;4.70;;;;;;;20.23;60.19;101214.84;5113021;28;20561;-56
2022/08/23 00:09:23;;;;;;;10.15;5.05;;;;;;;20.19;59.93;101220.53;5113893;28;20031;-56
2022/08/23 00:11:54;;;;;;;11.77;5.25;;;;;;;20.21;60.18;101217.69;5112727;28;20088;-56
2022/08/23 00:14:29;;;;;;;13.73;5.25;;;;;;;20.18;60.30;101218.84;5113593;28;20028;-56
2022/08/23 00:16:55;;;;;;;13.40;5.35;;;;;;;20.12;60.47;101224.84;5114067;28;20051;-56
2022/08/23 00:19:25;;;;;;;13.77;4.85;;;;;;;20.11;60.26;101209.63;5113741;28;20070;-55
2022/08/23 00:21:53;;;;;;;9.48;5.20;;;;;;;20.11;60.60;101222.28;5113526;28;20080;-56
2022/08/23 00:24:22;;;;;;;14.05;5.18;;;;;;;20.03;60.91;101220.34;5113848;28;20042;-56
2022/08/23 00:27:03;;;;;;;12.00;5.18;;;;;;;20.12;60.45;101224.00;5112877;28;20027;-56
2022/08/23 00:29:39;;;;;;;10.85;5.13;;;;;;;19.93;61.45;101225.78;5113287;28;20054;-56
2022/08/23 00:32:08;;;;;;;14.25;5.85;;;;;;;19.90;61.20;101215.28;5112335;28;20367;-56
2022/08/23 00:34:37;;;;;;;14.05;5.07;;;;;;;19.96;61.38;101213.81;5113561;28;20028;-56
2022/08/23 00:37:04;;;;;;;9.13;4.90;;;;;;;19.90;61.31;101217.13;5113309;28;20049;-56
2022/08/23 00:39:29;;;;;;;10.45;5.28;;;;;;;19.91;61.42;101224.22;5112092;28;20055;-56
2022/08/23 00:41:59;;;;;;;12.68;6.05;;;;;;;19.90;61.32;101223.38;5129232;27;20055;-56
2022/08/23 00:50:14;;;;;;;10.95;5.18;;;;;;;19.80;61.56;101224.44;5113178;28;20097;-56
2022/08/23 00:53:04;;;;;;;14.35;5.20;;;;;;;19.78;61.71;101221.84;5113393;28;20060;-56
2022/08/23 00:55:31;;;;;;;12.70;5.15;;;;;;;19.66;62.80;101223.03;5113281;28;20039;-56
2022/08/23 00:57:58;;;;;;;13.52;4.95;;;;;;;19.58;62.71;101217.50;5112578;27;20055;-56
2022/08/23 01:00:27;;;;;;;11.90;5.45;;;;;;;19.64;63.01;101219.59;5113161;28;20507;-56
2022/08/23 01:02:53;;;;;;;11.52;4.97;;;;;;;19.54;62.95;101225.03;5113107;28;20019;-56
2022/08/23 01:05:23;;;;;;;8.93;5.10;;;;;;;19.54;62.93;101227.72;5112704;28;20038;-56
2022/08/23 01:07:56;;;;;;;13.75;5.07;;;;;;;19.49;63.34;101220.06;5112834;28;20027;-56
2022/08/23 01:10:47;;;;;;;8.95;5.00;;;;;;;19.52;63.03;101224.31;5111601;28;20020;-56
2022/08/23 01:13:18;;;;;;;12.65;5.30;;;;;;;19.41;64.07;101213.69;5112529;28;20020;-56
2022/08/23 01:15:49;;;;;;;11.57;5.45;;;;;;;19.41;63.98;101221.78;5113111;28;20389;-56
2022/08/23 01:18:19;;;;;;;10.35;5.13;;;;;;;19.43;63.84;101217.09;5112755;28;20092;-56
2022/08/23 01:21:05;;;;;;;13.35;5.03;;;;;;;19.37;64.14;101218.53;5095140;28;20106;-56
2022/08/23 01:23:43;;;;;;;10.52;5.50;;;;;;;19.25;64.21;101217.00;5112692;28;20053;-56
2022/08/23 01:26:10;;;;;;;6.47;4.95;;;;;;;19.14;64.64;101222.53;5112739;28;20393;-56
2022/08/23 01:28:39;;;;;;;10.70;5.75;;;;;;;19.22;64.69;101228.91;5112042;28;20028;-56
2022/08/23 01:31:08;;;;;;;12.15;5.50;;;;;;;19.15;64.90;101226.91;5112639;28;20111;-56
2022/08/23 01:33:36;;;;;;;14.10;5.85;;;;;;;19.18;64.76;101235.59;5111059;28;20027;-56
2022/08/23 01:36:03;;;;;;;10.15;5.28;;;;;;;19.01;65.54;101237.16;5112505;28;20024;-56
2022/08/23 01:38:28;;;;;;;10.63;5.28;;;;;;;19.10;65.33;101235.44;5112058;28;20019;-56
2022/08/23 01:40:54;;;;;;;11.52;5.60;;;;;;;19.12;65.29;101235.28;5112363;28;20046;-56
2022/08/23 01:43:20;;;;;;;12.15;5.40;;;;;;;19.06;65.64;101242.13;5144502;27;20055;-56
2022/08/23 01:45:47;;;;;;;11.23;5.50;;;;;;;19.06;64.93;101237.59;5112006;28;20049;-56
2022/08/23 01:48:16;;;;;;;10.95;6.07;;;;;;;18.97;65.45;101243.84;5112109;28;20028;-56
2022/08/23 01:50:42;;;;;;;10.35;5.40;;;;;;;19.05;65.14;101238.56;5094740;28;20019;-56
2022/08/23 01:53:08;;;;;;;11.98;6.40;;;;;;;18.99;65.43;101239.13;5110738;28;20115;-56
2022/08/23 01:55:37;;;;;;;11.63;5.72;;;;;;;18.93;65.21;101239.72;5112222;28;20077;-56
2022/08/23 01:58:04;;;;;;;11.20;5.97;;;;;;;18.86;65.83;101233.19;5111609;28;20048;-56
2022/08/23 02:00:37;;;;;;;10.85;5.40;;;;;;;18.85;65.86;101228.78;5112236;28;20030;-56
2022/08/23 02:03:04;;;;;;;9.55;6.07;;;;;;;18.93;65.67;101231.63;5110452;28;20031;-56
2022/08/23 02:05:30;;;;;;;11.70;6.07;;;;;;;18.77;66.29;101231.34;5110966;28;20024;-57
2022/08/23 02:07:56;;;;;;;13.23;6.10;;;;;;;18.85;65.70;101231.47;5110791;28;20393;-56
2022/08/23 02:10:22;;;;;;;11.98;6.80;;;;;;;18.86;65.92;101229.66;5111919;28;20031;-56
2022/08/23 02:12:48;;;;;;;14.82;6.63;;;;;;;18.88;65.80;101228.50;5111615;28;20506;-56
2022/08/23 02:15:14;;;;;;;11.57;6.72;;;;;;;18.90;65.14;101231.91;5112306;28;20474;-56
2022/08/23 02:17:42;;;;;;;9.82;6.25;;;;;;;18.80;65.90;101231.06;5112060;28;20043;-57
2022/08/23 02:20:08;;;;;;;9.13;6.43;;;;;;;18.89;65.67;101230.22;5110937;28;20103;-56
2022/08/23 02:22:37;;;;;;;10.00;6.97;;;;;;;18.86;65.55;101237.75;5111775;28;20530;-56
2022/08/23 02:25:03;;;;;;;8.90;5.85;;;;;;;18.94;65.24;101237.84;5110724;28;20124;-56
2022/08/23 02:27:28;;;;;;;11.13;6.63;;;;;;;18.92;65.33;101237.16;5110680;28;20497;-56
2022/08/23 02:29:54;;;;;;;13.93;6.72;;;;;;;18.94;65.35;101233.34;5109990;28;20076;-56
2022/08/23 02:32:19;;;;;;;9.40;6.90;;;;;;;18.86;65.68;101225.09;5110285;28;20024;-56
2022/08/23 02:34:46;;;;;;;10.30;6.65;;;;;;;18.91;65.39;101221.97;5111794;28;20028;-57
2022/08/23 02:37:13;;;;;;;12.13;7.50;;;;;;;18.87;65.19;101228.66;5112006;28;20106;-57
2022/08/23 02:39:42;;;;;;;12.52;7.07;;;;;;;18.90;65.33;101222.97;5112186;28;20020;-57
2022/08/23 02:42:08;;;;;;;10.75;7.07;;;;;;;18.93;65.26;101228.91;5111839;28;20020;-57
2022/08/23 02:44:37;;;;;;;13.75;7.88;;;;;;;18.88;65.48;101223.09;5111393;28;20030;-57
2022/08/23 02:47:06;;;;;;;12.07;7.18;;;;;;;18.96;65.32;101231.34;5111622;28;20039;-57
2022/08/23 02:49:31;;;;;;;10.60;6.70;;;;;;;18.90;65.63;101228.38;5110535;28;20020;-57
2022/08/23 02:51:57;;;;;;;9.30;6.22;;;;;;;18.88;65.79;101231.19;5113547;28;20028;-56
2022/08/23 02:54:23;;;;;;;13.77;6.78;;;;;;;18.90;65.65;101231.06;5115340;28;20063;-57
2022/08/23 02:56:49;;;;;;;12.43;7.38;;;;;;;18.89;65.58;101229.38;5114298;28;20051;-56
2022/08/23 02:59:15;;;;;;;8.68;6.88;;;;;;;18.90;65.64;101236.44;5113652;28;20038;-56
2022/08/23 03:01:41;;;;;;;11.88;7.28;;;;;;;18.81;65.98;101236.28;5113920;28;20161;-57
2022/08/23 03:04:08;;;;;;;13.27;6.80;;;;;;;18.83;66.21;101241.56;5113573;28;20102;-57
2022/08/23 03:06:37;;;;;;;10.73;7.28;;;;;;;18.78;66.41;101238.44;5115150;28;20031;-57
2022/08/23 03:09:05;;;;;;;10.88;6.65;;;;;;;18.74;66.80;101235.16;5148282;27;20023;-57
2022/08/23 03:11:31;;;;;;;11.02;6.88;;;;;;;18.77;66.91;101240.28;5114942;28;20099;-57
2022/08/23 03:13:57;;;;;;;11.57;6.95;;;;;;;18.73;66.73;101246.03;5113191;28;20110;-56
2022/08/23 03:16:23;;;;;;;13.48;6.68;;;;;;;18.79;66.82;101245.50;5113266;28;20046;-57
2022/08/23 03:18:51;;;;;;;11.48;6.95;;;;;;;18.74;66.99;101245.94;5114964;28;20034;-57
2022/08/23 03:21:19;;;;;;;11.18;6.78;;;;;;;18.74;67.16;101247.78;5114808;28;20095;-57
2022/08/23 03:23:47;;;;;;;10.30;6.82;;;;;;;18.62;67.58;101238.94;5115092;28;20462;-57
2022/08/23 03:26:14;;;;;;;11.48;7.75;;;;;;;18.67;67.33;101250.13;5113866;28;20032;-56
2022/08/23 03:28:41;;;;;;;15.32;7.13;;;;;;;18.63;67.52;101248.72;5114352;28;20497;-57
2022/08/23 03:31:08;;;;;;;13.05;7.40;;;;;;;18.65;67.50;101254.84;5114641;28;20034;-57
2022/08/23 03:33:37;;;;;;;10.95;6.75;;;;;;;18.65;68.00;101256.66;5114544;28;20023;-57
2022/08/23 03:36:05;;;;;;;13.63;7.35;;;;;;;18.59;67.89;101255.41;5115061;28;20475;-57
2022/08/23 03:38:32;;;;;;;13.63;7.03;;;;;;;18.56;68.05;101250.25;5113512;28;20019;-57
2022/08/23 03:40:58;;;;;;;11.10;7.40;;;;;;;18.60;68.16;101257.09;5113488;28;20027;-57
2022/08/23 03:43:25;;;;;;;12.65;7.70;;;;;;;18.64;68.33;101254.97;5112532;28;20031;-56
2022/08/23 03:45:50;;;;;;;12.07;7.40;;;;;;;18.70;68.28;101257.09;5114706;27;20062;-56
2022/08/23 03:48:18;;;;;;;14.95;8.20;;;;;;;18.66;68.24;101248.44;5095962;28;20058;-57
2022/08/23 03:50:44;;;;;;;11.85;7.68;;;;;;;18.71;67.99;101253.44;5114995;27;20043;-57
2022/08/23 03:53:10;;;;;;;14.65;7.85;;;;;;;18.69;67.82;101253.56;5114213;28;20505;-56
2022/08/23 03:55:38;;;;;;;13.75;7.53;;;;;;;18.68;67.87;101257.25;5113204;28;20074;-57
2022/08/23 03:58:03;;;;;;;14.63;7.90;;;;;;;18.68;67.97;101259.06;5113541;28;20062;-56
2022/08/23 04:00:29;;;;;;;16.15;8.05;;;;;;;18.68;68.05;101264.47;5114337;28;20031;-57
2022/08/23 04:02:57;;;;;;;13.68;7.95;;;;;;;18.72;67.98;101261.38;5113581;28;20015;-56
2022/08/23 04:05:22;;;;;;;11.18;7.68;;;;;;;18.71;67.93;101258.81;5113006;28;20118;-57
2022/08/23 04:07:48;;;;;;;13.57;7.95;;;;;;;18.63;68.26;101267.59;5113951;27;20131;-56
2022/08/23 04:10:14;;;;;;;11.52;7.28;;;;;;;18.67;68.24;101262.78;5114381;28;20039;-57
2022/08/23 04:12:41;;;;;;;10.63;8.20;;;;;;;18.63;68.34;101256.81;5112675;28;20049;-57
2022/08/23 04:15:08;;;;;;;12.43;7.78;;;;;;;18.57;68.87;101265.44;5113592;27;20355;-57
2022/08/23 04:17:34;;;;;;;14.55;8.90;;;;;;;18.58;68.94;101267.16;5112621;28;20478;-57
2022/08/23 04:19:59;;;;;;;11.65;7.85;;;;;;;18.61;68.78;101264.16;5095799;28;20486;-56
2022/08/23 04:22:25;;;;;;;16.20;7.82;;;;;;;18.61;68.70;101265.03;5112485;28;20042;-57
2022/08/23 04:24:50;;;;;;;13.90;7.70;;;;;;;18.57;68.82;101265.44;5129369;27;20039;-56
2022/08/23 04:27:16;;;;;;;13.52;7.93;;;;;;;18.56;68.98;101272.69;5113410;28;20478;-57
2022/08/23 04:29:41;;;;;;;11.63;7.75;;;;;;;18.61;69.04;101274.94;5112128;28;20024;-57
2022/08/23 04:32:10;;;;;;;11.27;7.88;;;;;;;18.53;69.02;101274.78;5129390;27;20038;-57
2022/08/23 04:34:38;;;;;;;13.90;7.65;;;;;;;18.59;68.92;101287.72;5112327;28;20535;-57
2022/08/23 04:37:04;;;;;;;12.52;7.80;;;;;;;18.52;69.40;101278.47;5113657;28;20026;-57
2022/08/23 04:42:16;;;;;;;15.77;8.82;;;;;;;18.50;69.32;101284.03;5113600;28;20019;-56
2022/08/23 04:42:18;;;;;;;12.50;8.27;;;;;;;18.47;69.43;101267.25;5113139;28;20135;-56
2022/08/23 04:44:46;;;;;;;15.02;8.50;;;;;;;18.62;68.97;101284.75;5113046;28;20038;-56
2022/08/23 04:47:12;;;;;;;13.15;8.38;;;;;;;18.67;69.23;101284.31;5113569;28;20028;-57
2022/08/23 04:49:40;;;;;;;12.57;7.82;;;;;;;18.65;69.58;101291.69;5113367;28;20032;-57
2022/08/23 04:52:06;;;;;;;12.10;7.65;;;;;;;18.65;69.73;101286.28;5113298;28;20098;-57
2022/08/23 04:54:33;;;;;;;10.93;7.57;;;;;;;18.59;69.72;101291.28;5111823;28;20088;-56
2022/08/23 04:56:59;;;;;;;14.68;8.52;;;;;;;18.54;70.42;101301.59;5111623;28;20119;-57
2022/08/23 04:59:25;;;;;;;12.65;8.93;;;;;;;18.62;70.22;101300.91;5111356;28;20534;-56
2022/08/23 05:01:50;;;;;;;13.90;7.70;;;;;;;18.55;70.41;101297.91;5111538;28;20077;-56
2022/08/23 05:04:16;;;;;;;11.00;8.07;;;;;;;18.61;70.24;101300.03;5112730;28;20039;-57
2022/08/23 05:06:42;;;;;;;9.40;7.40;;;;;;;18.63;70.58;101299.91;5113446;28;20054;-57
2022/08/23 05:09:08;;;;;;;11.45;8.20;;;;;;;18.64;70.52;101300.78;5112704;28;20051;-56
2022/08/23 05:11:36;;;;;;;13.65;8.30;;;;;;;18.63;70.59;101307.16;5111222;28;20031;-56
2022/08/23 05:14:02;;;;;;;14.15;9.00;;;;;;;18.66;70.84;101305.03;5110439;28;20032;-57
2022/08/23 05:16:27;;;;;;;13.70;8.23;;;;;;;18.70;70.71;101306.44;5111300;28;20174;-56
2022/08/23 05:18:53;;;;;;;14.55;8.95;;;;;;;18.72;70.59;101298.25;5094222;28;20087;-56
2022/08/23 05:21:21;;;;;;;15.90;9.10;;;;;;;18.72;70.62;101309.88;5112492;28;20394;-57
2022/08/23 05:23:49;;;;;;;14.60;9.55;;;;;;;18.80;71.35;101306.53;5112517;28;20073;-56
2022/08/23 05:26:16;;;;;;;14.25;8.98;;;;;;;18.79;70.91;101305.66;5112350;27;20525;-56
2022/08/23 05:28:47;;;;;;;15.02;9.43;;;;;;;18.84;70.83;101303.41;5112260;28;20032;-56
2022/08/23 05:31:14;;;;;;;12.63;9.68;;;;;;;18.84;70.91;101302.53;5112619;28;20019;-56
2022/08/23 05:33:42;;;;;;;17.23;9.68;;;;;;;18.84;71.14;101311.47;5112418;28;20020;-56
2022/08/23 05:36:12;;;;;;;13.32;8.60;;;;;;;18.83;71.63;101315.19;5111200;28;20047;-57
2022/08/23 05:38:38;;;;;;;11.75;9.50;;;;;;;18.95;71.31;101318.59;5110994;28;20115;-57
2022/08/23 05:41:05;;;;;;;15.65;10.48;;;;;;;18.91;72.19;101321.69;5112283;27;20069;-56
2022/08/23 05:43:31;;;;;;;13.98;9.88;;;;;;;18.97;72.15;101326.53;5111739;28;20375;-57
2022/08/23 05:46:05;;;;;;;14.15;8.88;;;;;;;19.07;70.84;101338.19;5111040;28;20106;-57
2022/08/23 05:48:32;;;;;;;15.95;8.88;;;;;;;19.08;71.45;101339.03;5112113;28;20026;-57
2022/08/23 05:51:13;;;;;;;17.15;9.38;;;;;;;19.08;71.30;101336.34;5112319;28;20038;-56
2022/08/23 05:53:41;;;;;;;15.38;7.97;;;;;;;19.11;72.06;101336.06;5112186;28;20027;-57
2022/08/23 05:56:18;;;;;;;;;;;;;;;19.26;69.89;101348.97;5112600;28;20356;-57
2022/08/23 05:58:45;;;;;;;15.90;8.80;;;;;;;19.19;69.70;101344.31;5111940;28;19916;-56
2022/08/23 06:01:12;;;;;;;11.73;8.77;;;;;;;19.24;70.45;101348.28;5110853;28;20024;-56
2022/08/23 06:03:37;;;;;;;14.63;8.55;;;;;;;19.22;71.91;101350.28;5110461;28;20355;-57
2022/08/23 06:06:03;;;;;;;11.93;8.23;;;;;;;19.26;70.82;101353.53;5110454;28;20038;-57
2022/08/23 06:08:32;;;;;;;17.25;9.07;;;;;;;19.30;70.03;101357.69;5111174;28;20042;-57
2022/08/23 06:11:02;;;;;;;;;;;;;;;19.44;69.25;101361.78;5111285;28;20027;-56
2022/08/23 06:13:28;;;;;;;15.55;8.55;;;;;;;19.32;71.02;101344.88;5110086;28;19918;-57
2022/08/23 06:15:54;;;;;;;14.52;9.82;;;;;;;19.34;70.32;101360.94;5110648;28;20506;-57
2022/08/23 06:18:20;;;;;;;18.10;10.63;;;;;;;19.27;69.67;101353.41;5111724;28;20027;-57
2022/08/23 06:20:45;;;;;;;13.80;10.35;;;;;;;19.26;70.70;101354.38;5110637;28;20023;-56
2022/08/23 06:23:12;;;;;;;15.90;9.57;;;;;;;19.27;71.72;101358.81;5110231;28;20115;-57
2022/08/23 06:25:38;;;;;;;17.73;10.32;;;;;;;19.32;71.23;101360.22;5113503;28;20107;-57
2022/08/23 06:28:04;;;;;;;16.08;11.07;;;;;;;19.44;69.45;101367.16;5115612;28;20059;-56
2022/08/23 06:30:32;;;;;;;18.23;10.55;;;;;;;19.50;69.19;101361.19;5115765;28;20104;-57
2022/08/23 06:32:58;;;;;;;15.98;10.65;;;;;;;19.63;68.92;101363.63;5114385;28;20020;-57
2022/08/23 06:35:24;;;;;;;15.55;10.50;;;;;;;19.80;67.97;101357.53;5148943;27;20174;-56
2022/08/23 06:37:51;;;;;;;17.40;10.30;;;;;;;19.92;67.71;101358.22;5114037;28;20493;-57
2022/08/23 06:40:17;;;;;;;19.48;10.30;;;;;;;19.93;66.97;101368.88;5114642;28;20361;-57
2022/08/23 06:42:44;;;;;;;18.15;10.88;;;;;;;20.00;66.31;101363.75;5114546;28;20034;-57
2022/08/23 06:45:13;;;;;;;18.35;10.73;;;;;;;20.10;66.31;101361.03;5114239;28;20023;-56
2022/08/23 06:47:41;;;;;;;20.88;11.60;;;;;;;20.14;65.69;101365.13;5114452;28;20042;-56
2022/08/23 06:50:08;;;;;;;18.75;11.45;;;;;;;20.23;65.08;101358.00;5115725;28;20023;-57
2022/08/23 06:52:34;;;;;;;15.43;11.32;;;;;;;20.34;65.21;101364.06;5113898;28;20016;-56
2022/08/23 06:55:01;;;;;;;18.10;11.15;;;;;;;20.45;65.37;101357.63;5097073;28;20058;-57
2022/08/23 06:57:26;;;;;;;21.48;11.90;;;;;;;20.57;64.36;101367.28;5114129;28;20062;-57
2022/08/23 06:59:51;;;;;;;15.15;11.90;;;;;;;20.71;64.13;101373.22;5113658;28;20040;-57
2022/08/23 07:02:17;;;;;;;15.32;11.55;;;;;;;20.85;64.14;101368.16;5113752;28;20039;-57
2022/08/23 07:04:43;;;;;;;15.90;12.38;;;;;;;20.99;62.33;101363.22;5148501;27;20055;-57
2022/08/23 07:07:10;;;;;;;20.33;12.60;;;;;;;21.07;61.59;101360.59;5114980;28;20035;-57
2022/08/23 07:09:35;;;;;;;20.15;12.45;;;;;;;21.04;62.10;101353.66;5115377;28;20030;-56
2022/08/23 07:12:01;;;;;;;18.45;12.40;;;;;;;21.22;63.45;101364.47;5114457;28;20028;-57
2022/08/23 07:14:27;;;;;;;20.65;13.05;;;;;;;21.23;60.45;101366.16;5130383;27;20020;-56
2022/08/23 07:16:56;;;;;;;22.73;13.00;;;;;;;21.28;60.44;101374.69;5115222;28;20031;-57
2022/08/23 07:19:23;;;;;;;;;;;;;;;21.46;61.86;101376.59;5115325;28;20098;-57
2022/08/23 07:21:49;;;;;;;18.80;12.63;;;;;;;21.55;60.40;101368.38;5114598;28;20431;-57
2022/08/23 07:24:17;;;;;;;23.27;12.40;;;;;;;21.62;60.39;101371.34;5113484;28;20019;-57
2022/08/23 07:26:44;;;;;;;15.93;12.35;;;;;;;21.71;59.92;101372.25;5115165;28;20019;-56
2022/08/23 07:29:10;;;;;;;16.55;12.18;;;;;;;21.73;59.83;101376.47;5113022;28;20023;-57
2022/08/23 07:31:46;;;;;;;21.65;12.82;;;;;;;21.92;59.84;101382.75;5114969;28;20045;-57
2022/08/23 07:34:13;;;;;;;17.20;12.50;;;;;;;21.99;60.63;101378.38;5114682;28;20428;-57
2022/08/23 07:36:40;;;;;;;18.85;10.77;;;;;;;22.13;59.76;101380.50;5112488;28;20027;-57
2022/08/23 07:39:06;;;;;;;22.35;12.90;;;;;;;22.16;58.95;101384.75;5114570;28;20192;-56
2022/08/23 07:41:32;;;;;;;18.88;12.43;;;;;;;22.26;58.74;101382.81;5114484;28;20046;-57
2022/08/23 07:44:00;;;;;;;17.13;12.80;;;;;;;22.30;58.67;101389.63;5113931;27;20019;-56
2022/08/23 07:46:26;;;;;;;17.70;12.17;;;;;;;22.39;59.21;101394.09;5113166;28;20532;-56
2022/08/23 07:48:52;;;;;;;19.05;12.48;;;;;;;22.51;59.24;101393.81;5147183;27;20285;-56
2022/08/23 07:51:18;;;;;;;19.42;11.23;;;;;;;22.69;58.30;101394.56;5114134;28;20045;-57
2022/08/23 07:53:47;;;;;;;18.17;11.65;;;;;;;22.95;57.60;101399.97;5114693;28;20026;-57
2022/08/23 07:56:15;;;;;;;19.83;11.93;;;;;;;23.06;57.53;101396.09;5114257;28;20094;-57
2022/08/23 07:58:40;;;;;;;17.42;11.35;;;;;;;23.18;57.03;101396.63;5112467;28;20088;-57
2022/08/23 08:01:14;;;;;;;15.23;11.40;;;;;;;23.29;56.28;101405.31;5114445;28;20035;-56
2022/08/23 08:03:40;;;;;;;20.20;12.65;;;;;;;23.45;56.15;101401.78;5114096;28;20110;-57
2022/08/23 08:06:14;;;;;;;19.75;11.68;;;;;;;23.53;56.81;101399.09;5129994;27;20122;-57
2022/08/23 08:08:41;;;;;;;20.90;10.93;;;;;;;23.78;55.63;101399.13;5114460;28;20031;-57
2022/08/23 08:11:10;;;;;;;18.75;10.98;;;;;;;23.90;56.74;101399.63;5112979;28;20486;-56
2022/08/23 08:13:40;;;;;;;22.58;10.40;;;;;;;24.08;57.44;101399.44;5113579;28;20026;-56
2022/08/23 08:16:07;;;;;;;24.08;12.25;;;;;;;23.96;54.80;101402.50;5112724;28;20023;-56
2022/08/23 08:18:35;;;;;;;24.52;11.98;;;;;;;23.89;54.13;101411.53;5113822;28;20038;-56
2022/08/23 08:21:01;;;;;;;21.50;12.35;;;;;;;23.78;54.41;101421.69;5112409;28;20122;-57
2022/08/23 08:23:28;;;;;;;23.58;11.52;;;;;;;23.79;55.07;101422.53;5112467;28;20092;-57
2022/08/23 08:26:01;;;;;;;23.45;11.20;;;;;;;23.85;55.43;101421.88;5112473;28;20496;-57
2022/08/23 08:28:26;;;;;;;24.45;11.00;;;;;;;24.14;55.67;101415.91;5113190;28;20039;-57
2022/08/23 08:30:53;;;;;;;23.10;11.95;;;;;;;24.37;53.58;101409.75;5113583;28;20038;-56
2022/08/23 08:33:18;;;;;;;21.30;11.57;;;;;;;24.44;53.36;101411.66;5113061;28;20019;-57
2022/08/23 08:35:48;;;;;;;17.23;9.88;;;;;;;24.65;53.42;101413.81;5095159;28;20549;-56
2022/08/23 08:38:13;;;;;;;22.38;11.75;;;;;;;24.74;52.61;101411.03;5146506;27;20032;-57
2022/08/23 08:40:42;;;;;;;20.67;10.80;;;;;;;24.87;51.95;101411.31;5113750;28;20394;-56
2022/08/23 08:43:07;;;;;;;20.13;11.20;;;;;;;25.11;51.21;101421.25;5112954;28;20034;-57
2022/08/23 08:45:56;;;;;;;17.75;10.40;;;;;;;25.20;53.26;101425.66;5113424;28;20031;-57
2022/08/23 08:48:24;;;;;;;19.85;10.60;;;;;;;25.33;50.63;101427.81;5111850;28;20047;-57
2022/08/23 08:50:56;;;;;;;18.85;10.07;;;;;;;25.51;50.65;101427.50;5113534;28;20362;-56
2022/08/23 08:53:30;;;;;;;13.48;8.52;;;;;;;25.65;51.37;101426.75;5113174;28;20119;-56
2022/08/23 08:56:03;;;;;;;17.50;8.35;;;;;;;25.87;50.73;101433.22;5111940;28;20034;-57
2022/08/23 08:58:55;;;;;;;20.88;8.55;;;;;;;26.07;50.43;101435.44;5112310;28;20047;-56
2022/08/23 09:01:24;;;;;;;14.55;9.30;;;;;;;25.96;48.52;101425.81;5113113;28;20054;-56
2022/08/23 09:03:50;;;;;;;16.10;5.63;;;;;;;26.13;47.01;101437.44;5112701;28;20031;-56
2022/08/23 09:06:27;;;;;;;18.70;6.90;;;;;;;26.23;47.67;101441.56;5112851;28;20490;-56
2022/08/23 09:09:22;;;;;;;17.02;6.43;;;;;;;26.38;47.26;101432.56;5112846;28;20055;-56
2022/08/23 09:12:02;;;;;;;15.65;5.60;;;;;;;26.27;48.02;101442.91;5040842;28;20079;-56
2022/08/23 09:14:39;;;;;;;14.45;7.13;;;;;;;26.16;47.58;101437.91;5112331;28;20125;-56
2022/08/23 09:17:26;;;;;;;11.40;5.40;;;;;;;26.19;48.39;101434.81;5112463;28;20020;-56
2022/08/23 09:19:59;;;;;;;12.82;5.65;;;;;;;26.23;48.30;101438.84;5112651;28;20030;-56
2022/08/23 09:22:34;;;;;;;11.70;4.70;;;;;;;26.33;46.74;101438.59;5112615;28;20020;-56
2022/08/23 09:24:59;;;;;;;12.85;4.47;;;;;;;26.43;47.38;101441.91;5112564;28;20023;-56
2022/08/23 09:27:25;;;;;;;14.48;4.72;;;;;;;26.62;47.22;101439.69;5111361;28;20386;-56
2022/08/23 09:29:55;;;;;;;11.98;4.03;;;;;;;26.80;46.26;101439.31;5112093;28;20031;-56
2022/08/23 09:32:26;;;;;;;11.10;4.25;;;;;;;27.00;46.06;101443.13;5112185;27;20020;-57
2022/08/23 09:35:04;;;;;;;10.30;4.20;;;;;;;27.07;44.78;101440.50;5111086;28;20085;-56
2022/08/23 09:37:30;;;;;;;10.25;3.50;;;;;;;27.27;45.20;101438.91;5112459;28;20454;-56
2022/08/23 09:40:18;;;;;;;15.50;5.28;;;;;;;27.27;45.58;101446.25;5111183;28;20084;-56
2022/08/23 09:42:46;;;;;;;8.45;4.20;;;;;;;27.37;44.47;101438.56;5110989;28;20020;-56
2022/08/23 09:45:28;;;;;;;11.83;4.30;;;;;;;27.59;45.11;101445.78;5112500;28;20165;-57
2022/08/23 09:47:56;;;;;;;9.23;4.07;;;;;;;27.67;44.29;101446.66;5112004;28;20269;-56
2022/08/23 09:50:21;;;;;;;13.35;2.95;;;;;;;27.89;41.63;101445.66;5110941;28;20061;-56
2022/08/23 09:52:50;;;;;;;9.23;3.33;;;;;;;28.03;42.07;101430.19;5112082;28;20433;-56
2022/08/23 09:55:38;;;;;;;9.68;3.88;;;;;;;28.18;43.41;101430.97;5112330;28;20165;-56
2022/08/23 09:58:23;;;;;;;10.90;3.40;;;;;;;28.23;42.61;101428.47;5111547;28;20343;-56
2022/08/23 10:01:20;;;;;;;12.35;3.50;;;;;;;28.33;42.44;101430.03;5111606;28;20031;-57
2022/08/23 10:04:07;;;;;;;8.65;3.70;;;;;;;28.25;41.02;101426.38;5077619;28;20047;-56
2022/08/23 10:06:33;;;;;;;8.63;3.30;;;;;;;28.38;41.14;101420.16;5112177;28;20084;-57
2022/08/23 10:09:03;;;;;;;8.75;2.85;;;;;;;28.68;41.55;101420.81;5111965;28;20028;-57
2022/08/23 10:11:35;;;;;;;9.02;2.63;;;;;;;28.81;40.83;101420.03;5112149;28;20023;-56
2022/08/23 10:14:03;;;;;;;8.90;3.17;;;;;;;29.05;40.60;101418.69;5110127;28;20031;-56
2022/08/23 10:16:34;;;;;;;7.72;3.28;;;;;;;29.09;39.87;101424.59;5110594;28;20039;-57
2022/08/23 10:19:15;;;;;;;7.85;3.95;;;;;;;29.01;40.48;101422.84;5110565;28;20115;-56
2022/08/23 10:21:46;;;;;;;7.25;3.40;;;;;;;29.03;40.21;101425.41;5111102;28;20072;-57
2022/08/23 10:24:33;;;;;;;9.00;3.90;;;;;;;28.97;39.48;101419.69;5112055;28;20035;-57
2022/08/23 10:29:35;;;;;;;6.85;3.28;;;;;;;29.14;40.24;101419.34;5110576;28;20055;-56
2022/08/23 10:30:11;;;;;;;7.78;2.65;;;;;;;29.26;39.62;101425.91;5111026;28;20493;-56
2022/08/23 10:32:46;;;;;;;10.40;3.38;;;;;;;29.34;39.35;101419.41;5110441;28;20496;-56
2022/08/23 10:35:50;;;;;;;9.98;3.42;;;;;;;29.32;39.27;101429.72;5112191;28;20390;-56
2022/08/23 10:38:34;;;;;;;8.57;2.95;;;;;;;29.47;38.45;101422.16;5111738;28;20448;-57
2022/08/23 10:41:18;;;;;;;11.02;3.53;;;;;;;29.70;38.09;101418.22;5111860;28;20093;-56
2022/08/23 10:43:51;;;;;;;6.30;2.63;;;;;;;29.54;39.04;101416.72;5111415;28;20023;-56
2022/08/23 10:46:20;;;;;;;4.65;1.92;;;;;;;29.74;37.07;101409.41;5110413;28;20057;-57
2022/08/23 10:49:00;;;;;;;7.47;2.08;;;;;;;29.92;37.39;101407.94;5111497;28;20043;-57
2022/08/23 10:51:38;;;;;;;9.68;2.30;;;;;;;29.98;36.71;101415.31;5111563;28;20027;-56
2022/08/23 10:54:11;;;;;;;5.32;2.47;;;;;;;29.97;36.52;101413.59;5111703;28;20016;-56
2022/08/23 10:56:37;;;;;;;10.32;2.42;;;;;;;30.10;36.56;101402.63;5111269;28;20039;-56
2022/08/23 10:59:13;;;;;;;8.52;2.30;;;;;;;30.20;37.12;101405.78;5092762;28;20032;-56
2022/08/23 11:01:49;;;;;;;6.63;2.30;;;;;;;30.23;35.97;101412.78;5110077;28;20492;-56
2022/08/23 11:04:37;;;;;;;9.02;2.58;;;;;;;30.58;36.04;101401.50;5111442;28;20398;-56
2022/08/23 11:07:27;;;;;;;5.03;2.22;;;;;;;30.58;35.81;101407.00;5110219;28;20058;-56
2022/08/23 11:10:08;;;;;;;7.38;2.30;;;;;;;30.66;35.77;101399.38;5111378;28;20019;-56
2022/08/23 11:12:53;;;;;;;7.40;2.47;;;;;;;30.85;36.03;101394.88;5113959;28;20387;-56
2022/08/23 11:15:31;;;;;;;6.72;2.10;;;;;;;31.07;35.87;101394.59;5115224;27;20030;-56
2022/08/23 11:18:03;;;;;;;5.55;2.33;;;;;;;31.18;34.07;101404.91;5115062;28;20035;-56
2022/08/23 11:20:50;;;;;;;7.30;2.22;;;;;;;30.96;35.64;101396.94;5115015;28;20072;-56
2022/08/23 11:23:37;;;;;;;6.03;2.10;;;;;;;30.87;35.76;101400.19;5114921;28;20027;-56
2022/08/23 11:26:04;;;;;;;6.30;2.25;;;;;;;31.10;34.58;101397.75;5113803;28;20030;-57
2022/08/23 11:28:38;;;;;;;7.30;2.20;;;;;;;31.32;35.31;101403.72;5114124;28;20036;-56
2022/08/23 11:31:07;;;;;;;10.88;2.47;;;;;;;31.78;33.87;101394.34;5114936;28;20355;-56
2022/08/23 11:33:42;;;;;;;8.25;2.70;;;;;;;32.00;33.30;101403.06;5114701;28;20016;-56
2022/08/23 11:36:07;;;;;;;5.38;2.00;;;;;;;32.23;32.39;101399.69;5114785;28;20466;-56